Time;durP1;ratioP1;P1;durP2;ratioP2;P2;SDS_P1;SDS_P2;PMS_P1;PMS_P2;Temp;Humidity;BMP_temperature;BMP_pressure;BME280_temperature;BME280_humidity;BME280_pressure;Samples;Min_cycle;Max_cycle;Signal;HPM_P1;HPM_P2
2023/09/10 00:00:33;;;;;;;6.10;5.70;;;;;;;21.41;72.04;100607.00;4993086;28;20210;-76
2023/09/10 00:02:59;;;;;;;5.80;5.50;;;;;;;21.39;72.08;100603.59;4992945;28;20235;-76
2023/09/10 00:05:27;;;;;;;6.50;5.90;;;;;;;21.45;72.21;100607.72;4993140;28;20223;-76
2023/09/10 00:07:54;;;;;;;6.37;5.97;;;;;;;21.43;72.15;100606.94;5012608;28;20226;-76
2023/09/10 00:10:20;;;;;;;6.43;5.93;;;;;;;21.46;71.60;100612.06;5012659;28;20210;-76
2023/09/10 00:12:47;;;;;;;7.10;6.50;;;;;;;21.46;71.74;100612.06;5012209;28;20281;-76
2023/09/10 00:15:14;;;;;;;6.97;6.47;;;;;;;21.44;71.83;100619.25;5012412;28;20203;-76
2023/09/10 00:17:40;;;;;;;6.53;6.13;;;;;;;21.41;71.81;100617.63;5007314;28;20204;-76
2023/09/10 00:20:09;;;;;;;6.53;6.13;;;;;;;21.35;71.83;100622.47;4992867;28;20207;-76
2023/09/10 00:22:38;;;;;;;6.17;5.77;;;;;;;21.29;72.23;100607.75;4992527;28;20278;-76
2023/09/10 00:25:06;;;;;;;6.53;6.13;;;;;;;21.22;72.78;100591.34;4992774;28;20397;-76
2023/09/10 00:27:32;;;;;;;5.97;5.57;;;;;;;21.19;72.91;100583.56;4992729;28;20210;-76
2023/09/10 00:29:59;;;;;;;5.63;5.33;;;;;;;21.18;73.80;100573.88;4992828;28;20203;-76
2023/09/10 00:32:25;;;;;;;5.77;5.37;;;;;;;21.10;74.15;100562.88;4992378;28;20749;-75
2023/09/10 00:34:51;;;;;;;6.07;5.67;;;;;;;21.12;74.63;100541.56;4992838;28;20208;-76
2023/09/10 00:37:18;;;;;;;6.20;5.60;;;;;;;21.15;74.70;100538.72;4992710;28;20223;-76
2023/09/10 00:39:46;;;;;;;5.77;5.47;;;;;;;21.21;74.09;100544.50;4992650;28;20211;-76
2023/09/10 00:42:12;;;;;;;6.37;5.97;;;;;;;21.28;73.47;100554.75;4992004;28;20207;-76
2023/09/10 00:44:40;;;;;;;9.30;7.50;;;;;;;21.28;72.60;100576.00;4992489;28;20211;-76
2023/09/10 00:47:07;;;;;;;7.60;7.00;;;;;;;21.31;71.99;100607.69;4992667;28;20215;-76
2023/09/10 00:49:33;;;;;;;11.00;7.80;;;;;;;21.30;71.86;100614.75;4992474;28;20218;-76
2023/09/10 00:52:02;;;;;;;7.47;6.97;;;;;;;21.25;71.87;100623.94;4992281;28;20223;-76
2023/09/10 00:54:32;;;;;;;7.87;7.17;;;;;;;21.19;72.13;100625.22;4992483;28;20669;-76
2023/09/10 00:57:01;;;;;;;7.87;7.27;;;;;;;21.15;72.17;100631.63;4992396;28;20204;-76
2023/09/10 00:59:28;;;;;;;8.03;7.33;;;;;;;21.12;72.03;100631.81;4992620;28;20203;-76
2023/09/10 01:01:55;;;;;;;7.73;7.23;;;;;;;21.07;71.99;100639.19;4992393;28;20203;-76
2023/09/10 01:04:23;;;;;;;7.53;6.93;;;;;;;21.05;72.23;100628.69;4992329;28;20238;-76
2023/09/10 01:06:51;;;;;;;7.43;7.03;;;;;;;21.01;72.20;100632.47;4992389;28;20223;-76
2023/09/10 01:09:17;;;;;;;6.97;6.47;;;;;;;20.94;72.45;100628.47;4992512;28;20218;-76
2023/09/10 01:11:53;;;;;;;7.60;7.10;;;;;;;20.89;72.07;100643.78;4992588;28;20215;-76
2023/09/10 01:14:27;;;;;;;7.53;7.13;;;;;;;20.44;72.62;100655.16;4992240;28;20281;-76
2023/09/10 01:17:03;;;;;;;9.00;8.40;;;;;;;20.24;74.68;100605.91;4995356;28;20704;-76
2023/09/10 01:19:58;;;;;;;9.17;8.47;;;;;;;18.93;80.09;100530.03;4995996;28;20207;-75
2023/09/10 01:22:31;;;;;;;7.67;7.17;;;;;;;18.37;84.70;100407.72;4995794;28;20767;-75
2023/09/10 01:25:00;;;;;;;8.13;7.63;;;;;;;18.11;87.28;100316.63;4996255;28;20577;-75
2023/09/10 01:27:26;;;;;;;8.83;8.23;;;;;;;17.93;89.56;100277.97;4996088;28;20555;-75
2023/09/10 01:29:53;;;;;;;9.67;8.77;;;;;;;17.84;90.88;100235.25;4996019;28;20821;-75
2023/09/10 01:32:24;;;;;;;8.33;7.73;;;;;;;17.93;91.01;100228.63;4995475;28;20211;-75
2023/09/10 01:34:59;;;;;;;9.37;8.67;;;;;;;17.97;91.52;100219.59;4996147;28;20207;-75
2023/09/10 01:37:32;;;;;;;8.80;7.27;;;;;;;18.04;91.46;100222.81;4995774;28;20688;-76
2023/09/10 01:40:06;;;;;;;8.43;7.93;;;;;;;18.31;90.99;100238.94;4995816;28;20215;-76
2023/09/10 01:42:35;;;;;;;8.47;7.77;;;;;;;18.02;91.34;100241.34;4995388;28;20242;-76
2023/09/10 01:45:02;;;;;;;8.27;7.70;;;;;;;18.20;91.09;100251.88;4995596;28;20222;-76
2023/09/10 01:47:28;;;;;;;7.30;6.80;;;;;;;18.28;91.23;100254.97;4995650;28;20208;-76
2023/09/10 01:49:56;;;;;;;8.50;7.80;;;;;;;18.28;91.19;100260.25;4995645;28;20203;-76
2023/09/10 01:52:22;;;;;;;8.53;7.93;;;;;;;18.38;90.67;100272.03;4995319;28;20242;-76
2023/09/10 01:54:49;;;;;;;7.93;7.27;;;;;;;18.54;91.23;100268.56;4995385;28;20203;-76
2023/09/10 01:57:17;;;;;;;7.40;6.90;;;;;;;18.65;91.09;100272.31;4995346;28;20219;-76
2023/09/10 01:59:43;;;;;;;6.93;6.43;;;;;;;18.84;90.04;100292.47;4995654;28;20207;-76
2023/09/10 02:02:10;;;;;;;7.13;6.50;;;;;;;19.04;88.99;100320.44;4995022;28;20583;-76
2023/09/10 02:04:36;;;;;;;8.27;7.50;;;;;;;19.23;87.40;100358.16;4995478;28;20295;-76
2023/09/10 02:07:03;;;;;;;7.50;6.90;;;;;;;19.35;85.94;100385.75;4995137;28;20769;-76
2023/09/10 02:09:29;;;;;;;6.70;6.20;;;;;;;19.50;84.52;100420.22;4995342;28;20235;-75
2023/09/10 02:11:56;;;;;;;6.77;6.27;;;;;;;19.59;83.73;100446.19;4994829;28;20707;-76
2023/09/10 02:14:24;;;;;;;6.73;6.23;;;;;;;19.68;83.88;100453.59;4995494;28;20243;-76
2023/09/10 02:16:50;;;;;;;6.37;5.87;;;;;;;19.72;84.21;100451.66;4995322;28;20200;-76
2023/09/10 02:19:17;;;;;;;6.77;6.17;;;;;;;19.76;84.07;100458.50;4994846;28;20211;-77
2023/09/10 02:21:43;;;;;;;6.27;5.77;;;;;;;19.83;83.85;100468.66;4995031;28;20215;-75
2023/09/10 02:24:10;;;;;;;6.10;5.70;;;;;;;19.90;82.57;100486.84;4994716;28;20231;-76
2023/09/10 02:26:36;;;;;;;7.17;6.67;;;;;;;19.93;81.06;100508.72;4994310;28;20236;-76
2023/09/10 02:29:03;;;;;;;6.27;5.87;;;;;;;19.98;80.89;100529.66;4994549;28;20207;-75
2023/09/10 02:31:31;;;;;;;6.93;6.43;;;;;;;20.00;80.59;100543.69;4994942;28;20242;-75
2023/09/10 02:34:00;;;;;;;6.83;6.33;;;;;;;19.99;80.03;100550.78;4994438;28;20736;-76
2023/09/10 02:36:27;;;;;;;6.40;6.00;;;;;;;19.99;79.80;100568.47;4994759;28;20230;-76
2023/09/10 02:38:54;;;;;;;6.70;6.10;;;;;;;19.97;79.34;100578.31;4994916;28;20670;-77
2023/09/10 02:41:21;;;;;;;6.90;6.50;;;;;;;19.92;79.32;100589.16;4994586;28;20204;-76
2023/09/10 02:43:47;;;;;;;6.90;6.40;;;;;;;19.89;79.43;100589.31;4994293;28;20647;-77
2023/09/10 02:46:14;;;;;;;7.10;6.60;;;;;;;19.87;79.38;100593.00;4994798;28;20231;-76
2023/09/10 02:48:41;;;;;;;6.07;5.60;;;;;;;19.88;79.33;100598.22;4994412;28;20223;-75
2023/09/10 02:51:08;;;;;;;7.63;7.03;;;;;;;19.84;79.54;100599.31;4994342;28;20579;-76
2023/09/10 02:53:34;;;;;;;7.57;7.07;;;;;;;19.89;78.69;100615.81;4993966;28;20240;-76
2023/09/10 02:56:01;;;;;;;7.77;7.00;;;;;;;19.88;78.61;100614.13;4994641;28;20262;-76
2023/09/10 02:58:28;;;;;;;7.23;6.83;;;;;;;19.90;78.30;100628.16;4994456;28;20203;-76
2023/09/10 03:00:54;;;;;;;7.57;7.03;;;;;;;19.93;78.24;100622.66;4994417;28;20215;-76
2023/09/10 03:03:21;;;;;;;7.13;6.53;;;;;;;19.95;77.24;100644.63;4993859;28;20607;-76
2023/09/10 03:05:49;;;;;;;7.80;7.30;;;;;;;19.95;76.95;100657.03;4994184;28;20234;-76
2023/09/10 03:08:15;;;;;;;6.53;6.00;;;;;;;19.89;76.26;100676.75;4994035;28;20219;-76
2023/09/10 03:10:42;;;;;;;7.60;7.00;;;;;;;19.65;76.37;100677.09;4994346;28;20215;-76
2023/09/10 03:13:08;;;;;;;6.73;6.23;;;;;;;19.62;77.10;100669.34;4993670;28;20731;-76
2023/09/10 03:15:35;;;;;;;7.27;6.77;;;;;;;19.65;77.96;100655.06;4994221;28;20211;-76
2023/09/10 03:18:01;;;;;;;9.10;8.43;;;;;;;19.50;79.36;100627.59;4993957;28;20588;-76
2023/09/10 03:20:28;;;;;;;7.63;6.97;;;;;;;19.61;78.99;100616.44;4993831;28;20212;-76
2023/09/10 03:22:59;;;;;;;8.20;7.60;;;;;;;19.45;79.06;100627.00;4993360;28;20251;-76
2023/09/10 03:25:25;;;;;;;7.97;7.27;;;;;;;19.39;80.58;100588.47;4994120;28;20259;-75
2023/09/10 03:27:52;;;;;;;8.87;8.27;;;;;;;18.50;84.81;100534.00;4993965;28;20207;-76
2023/09/10 03:30:18;;;;;;;8.83;8.13;;;;;;;18.50;86.53;100462.63;4993699;28;20600;-76
2023/09/10 03:32:45;;;;;;;9.57;8.67;;;;;;;18.33;87.80;100429.13;4993594;28;20234;-75
2023/09/10 03:35:12;;;;;;;7.67;7.17;;;;;;;18.59;86.96;100410.13;4993551;28;20216;-76
2023/09/10 03:37:38;;;;;;;7.97;7.23;;;;;;;18.81;85.79;100425.75;4993707;28;20207;-76
2023/09/10 03:40:08;;;;;;;8.10;7.33;;;;;;;18.92;84.84;100450.75;4993280;28;20211;-76
2023/09/10 03:42:35;;;;;;;8.37;7.77;;;;;;;19.03;84.20;100472.22;4993133;28;20243;-75
2023/09/10 03:45:02;;;;;;;8.10;7.50;;;;;;;18.96;83.87;100489.34;4993463;28;20211;-75
2023/09/10 03:47:29;;;;;;;8.17;7.67;;;;;;;18.70;84.73;100485.38;4993273;28;20417;-76
2023/09/10 03:49:55;;;;;;;9.30;8.70;;;;;;;18.88;85.04;100467.72;4993057;28;20203;-76
2023/09/10 03:52:22;;;;;;;8.40;7.80;;;;;;;18.84;84.42;100472.31;4993233;28;20239;-75
2023/09/10 03:54:49;;;;;;;7.70;7.10;;;;;;;18.88;84.88;100465.94;4993484;28;20211;-76
2023/09/10 03:57:17;;;;;;;7.97;7.37;;;;;;;18.68;84.86;100458.16;5010356;28;20657;-76
2023/09/10 03:59:43;;;;;;;7.93;7.40;;;;;;;18.83;84.86;100475.91;5012298;28;20210;-76
2023/09/10 04:02:10;;;;;;;9.27;8.57;;;;;;;18.40;86.08;100465.72;5012345;28;20206;-75
2023/09/10 04:04:37;;;;;;;9.33;8.60;;;;;;;18.17;87.01;100455.47;5012847;28;20224;-75
2023/09/10 04:07:04;;;;;;;9.43;8.73;;;;;;;18.02;88.75;100409.56;5012361;28;20233;-75
2023/09/10 04:09:31;;;;;;;9.37;8.70;;;;;;;17.96;89.51;100396.66;5012728;28;20273;-75
2023/09/10 04:11:58;;;;;;;9.30;8.50;;;;;;;17.66;90.93;100368.19;5012543;28;20211;-76
2023/09/10 04:14:26;;;;;;;9.17;8.47;;;;;;;17.61;93.18;100325.31;5012414;28;20231;-75
2023/09/10 04:16:53;;;;;;;9.20;8.60;;;;;;;17.60;93.39;100303.34;5012294;28;20265;-75
2023/09/10 04:19:19;;;;;;;10.27;9.37;;;;;;;17.53;93.37;100311.66;4993604;28;20211;-75
2023/09/10 04:21:46;;;;;;;8.70;7.90;;;;;;;17.58;93.53;100312.25;4992735;28;20257;-75
2023/09/10 04:24:12;;;;;;;9.73;9.13;;;;;;;17.45;93.96;100314.66;4992474;28;20763;-75
2023/09/10 04:26:39;;;;;;;9.27;8.50;;;;;;;17.46;93.82;100319.00;4992655;28;20232;-75
2023/09/10 04:29:06;;;;;;;8.93;8.33;;;;;;;17.57;93.71;100314.06;4992797;28;20219;-75
2023/09/10 04:31:36;;;;;;;8.67;8.07;;;;;;;17.50;94.65;100312.63;4992777;28;20207;-76
2023/09/10 04:34:03;;;;;;;8.57;7.87;;;;;;;17.46;94.85;100309.31;4992554;28;20227;-76
2023/09/10 04:36:30;;;;;;;9.33;8.70;;;;;;;17.36;94.91;100310.72;4992729;28;20207;-76
2023/09/10 04:38:56;;;;;;;8.60;7.90;;;;;;;17.44;94.95;100321.75;4992696;28;20566;-76
2023/09/10 04:41:23;;;;;;;9.17;8.47;;;;;;;17.54;93.92;100339.72;4992600;28;20203;-75
2023/09/10 04:43:49;;;;;;;9.17;8.47;;;;;;;17.36;94.55;100336.22;4992270;28;20246;-75
2023/09/10 04:46:16;;;;;;;8.93;8.33;;;;;;;17.26;95.69;100330.53;4992306;28;20231;-76
2023/09/10 04:48:45;;;;;;;9.87;9.17;;;;;;;17.23;95.59;100330.69;4992594;28;20213;-76
2023/09/10 04:51:11;;;;;;;9.93;9.07;;;;;;;17.14;96.38;100328.50;4991768;28;20297;-76
2023/09/10 04:53:38;;;;;;;9.67;8.93;;;;;;;17.06;96.33;100329.69;4992228;28;20232;-76
2023/09/10 04:56:04;;;;;;;10.10;9.40;;;;;;;16.88;97.90;100312.13;4992323;28;20215;-76
2023/09/10 04:58:31;;;;;;;10.77;9.87;;;;;;;16.67;99.25;100308.69;4992255;28;20206;-76
2023/09/10 05:00:57;;;;;;;9.63;8.97;;;;;;;16.56;100.00;100277.56;4992741;28;20268;-75
2023/09/10 05:03:24;;;;;;;10.50;9.80;;;;;;;16.56;100.00;100284.59;4992013;28;20235;-76
2023/09/10 05:05:58;;;;;;;10.60;9.60;;;;;;;16.57;100.00;100284.56;4992424;28;20242;-75
2023/09/10 05:08:24;;;;;;;9.87;9.17;;;;;;;16.51;100.00;100283.97;4992611;28;20619;-76
2023/09/10 05:10:51;;;;;;;10.50;9.70;;;;;;;16.61;100.00;100285.22;4992507;28;20214;-76
2023/09/10 05:13:18;;;;;;;11.23;10.33;;;;;;;16.85;100.00;100291.19;4991850;28;20671;-76
2023/09/10 05:15:45;;;;;;;10.43;9.47;;;;;;;17.09;100.00;100312.91;4992430;28;20210;-76
2023/09/10 05:18:12;;;;;;;8.97;8.37;;;;;;;17.19;97.75;100343.16;4992249;28;20249;-75
2023/09/10 05:20:38;;;;;;;9.77;9.03;;;;;;;17.32;96.68;100375.09;4992043;28;20215;-75
2023/09/10 05:23:06;;;;;;;9.47;8.80;;;;;;;17.49;95.76;100397.19;4991898;28;20601;-76
2023/09/10 05:25:35;;;;;;;9.10;8.37;;;;;;;17.37;95.97;100403.91;4992129;28;20215;-75
2023/09/10 05:28:02;;;;;;;9.03;8.37;;;;;;;17.33;97.61;100386.50;4992023;28;20241;-76
2023/09/10 05:30:29;;;;;;;8.73;8.13;;;;;;;17.55;97.90;100383.69;4992476;28;20212;-76
2023/09/10 05:32:56;;;;;;;10.27;8.07;;;;;;;17.86;95.21;100420.03;4991834;28;20223;-76
2023/09/10 05:35:23;;;;;;;9.50;8.77;;;;;;;18.19;92.50;100461.53;4992392;28;20211;-76
2023/09/10 05:37:50;;;;;;;8.37;7.60;;;;;;;18.36;90.55;100510.91;4992131;28;20214;-76
2023/09/10 05:40:18;;;;;;;10.90;10.00;;;;;;;17.88;90.29;100547.56;4991931;28;20223;-75
2023/09/10 05:42:45;;;;;;;11.83;11.03;;;;;;;17.35;93.54;100511.31;4991810;28;20235;-76
2023/09/10 05:45:12;;;;;;;11.60;10.90;;;;;;;17.17;95.32;100469.00;4992228;28;20208;-75
2023/09/10 05:47:38;;;;;;;10.97;10.00;;;;;;;17.15;96.41;100443.63;4991914;28;20231;-75
2023/09/10 05:50:06;;;;;;;10.80;9.97;;;;;;;16.94;97.41;100430.50;4992012;28;20204;-76
2023/09/10 05:52:32;;;;;;;11.07;10.27;;;;;;;16.95;98.30;100408.47;4991727;28;20721;-75
2023/09/10 05:54:59;;;;;;;10.60;9.83;;;;;;;16.93;98.46;100404.22;4992128;28;20214;-75
2023/09/10 05:57:27;;;;;;;10.77;9.97;;;;;;;16.91;98.28;100400.75;4991809;28;20848;-76
2023/09/10 05:59:53;;;;;;;10.77;9.97;;;;;;;16.96;98.59;100404.06;4992062;28;20211;-77
2023/09/10 06:02:20;;;;;;;11.03;10.33;;;;;;;16.97;98.84;100406.63;4993457;28;20677;-77
2023/09/10 06:04:46;;;;;;;11.20;10.30;;;;;;;16.94;98.64;100401.47;4995235;28;20547;-75
2023/09/10 06:07:13;;;;;;;10.70;9.90;;;;;;;17.03;98.43;100408.13;4995147;28;20250;-76
2023/09/10 06:09:39;;;;;;;10.43;9.63;;;;;;;16.99;98.89;100410.06;4995447;28;20207;-76
2023/09/10 06:12:06;;;;;;;10.33;9.53;;;;;;;17.01;98.99;100404.72;4994931;28;20214;-76
2023/09/10 06:14:34;;;;;;;10.97;10.17;;;;;;;17.04;98.96;100412.47;4995186;28;20207;-75
2023/09/10 06:17:01;;;;;;;9.87;9.27;;;;;;;17.20;98.22;100423.16;4994980;28;20203;-76
2023/09/10 06:19:28;;;;;;;10.27;9.47;;;;;;;17.33;97.66;100444.56;4994638;28;20212;-76
2023/09/10 06:21:54;;;;;;;9.90;9.23;;;;;;;17.44;96.83;100451.03;4994537;28;20211;-75
2023/09/10 06:24:21;;;;;;;9.53;8.93;;;;;;;17.54;96.69;100456.75;4994927;28;20231;-76
2023/09/10 06:26:47;;;;;;;9.73;9.03;;;;;;;17.63;96.28;100479.19;4994922;28;20238;-75
2023/09/10 06:29:14;;;;;;;10.23;9.53;;;;;;;17.70;95.87;100480.63;4994901;28;20207;-76
2023/09/10 06:31:42;;;;;;;9.90;9.03;;;;;;;17.81;96.06;100483.59;4994738;28;20212;-76
2023/09/10 06:34:08;;;;;;;9.50;8.80;;;;;;;17.89;95.12;100498.25;4994398;28;20227;-76
2023/09/10 06:36:35;;;;;;;10.00;9.30;;;;;;;17.99;94.27;100516.19;4994510;28;20211;-76
2023/09/10 06:39:03;;;;;;;8.93;8.23;;;;;;;18.06;93.92;100524.69;4994724;28;20207;-75
2023/09/10 06:41:29;;;;;;;8.90;8.30;;;;;;;18.20;94.10;100526.66;4994631;28;20306;-75
2023/09/10 06:43:56;;;;;;;8.90;8.20;;;;;;;18.28;94.11;100521.84;4994110;28;20243;-76
2023/09/10 06:46:22;;;;;;;9.67;8.43;;;;;;;18.35;93.97;100528.53;4994472;28;20235;-75
2023/09/10 06:48:50;;;;;;;11.57;10.63;;;;;;;18.44;94.41;100525.44;4994249;28;20318;-75
2023/09/10 06:51:16;;;;;;;8.80;8.17;;;;;;;18.60;94.24;100528.16;4994088;28;20607;-75
2023/09/10 06:53:43;;;;;;;11.17;10.37;;;;;;;18.81;93.37;100539.47;4987565;28;20228;-77
2023/09/10 06:56:09;;;;;;;13.07;11.80;;;;;;;19.07;93.11;100545.19;4993662;28;20200;-77
2023/09/10 06:58:36;;;;;;;11.60;10.70;;;;;;;19.28;91.40;100576.72;4994353;28;20210;-77
2023/09/10 07:01:06;;;;;;;12.10;11.10;;;;;;;19.41;90.54;100591.03;4995860;28;20215;-77
2023/09/10 07:03:33;;;;;;;11.53;10.73;;;;;;;19.51;89.75;100613.44;4992672;28;20249;-76
2023/09/10 07:06:03;;;;;;;12.93;11.83;;;;;;;19.58;89.80;100622.78;4997861;28;20265;-75
2023/09/10 07:08:30;;;;;;;11.33;10.57;;;;;;;19.55;88.95;100633.50;4981627;28;20577;-76
2023/09/10 07:10:57;;;;;;;11.60;10.70;;;;;;;19.73;89.28;100636.16;4985487;28;20211;-76
2023/09/10 07:13:24;;;;;;;11.90;11.00;;;;;;;19.81;89.02;100637.44;4992770;28;20238;-76
2023/09/10 07:15:50;;;;;;;10.90;10.00;;;;;;;19.79;89.36;100628.72;4993254;28;20230;-76
2023/09/10 07:18:17;;;;;;;11.60;10.07;;;;;;;19.87;90.13;100619.50;4990468;28;20212;-75
2023/09/10 07:20:43;;;;;;;10.60;9.80;;;;;;;19.90;89.59;100622.84;4975792;28;20667;-76
2023/09/10 07:23:11;;;;;;;12.10;11.00;;;;;;;19.93;90.08;100624.47;4993253;28;20227;-76
2023/09/10 07:25:39;;;;;;;10.90;10.00;;;;;;;20.00;90.52;100613.44;4993599;28;20218;-76
2023/09/10 07:28:06;;;;;;;11.70;10.90;;;;;;;20.06;90.24;100621.97;5003706;28;20314;-76
2023/09/10 07:30:33;;;;;;;12.10;11.10;;;;;;;20.10;91.14;100597.00;4982142;28;20234;-76
2023/09/10 07:32:59;;;;;;;12.57;11.63;;;;;;;20.12;91.33;100595.13;4992425;28;20693;-75
2023/09/10 07:35:26;;;;;;;12.20;11.30;;;;;;;20.22;91.42;100583.94;4993256;28;20222;-76
2023/09/10 07:37:53;;;;;;;12.60;11.50;;;;;;;20.28;91.17;100603.94;4993074;28;20681;-77
2023/09/10 07:40:20;;;;;;;12.47;11.27;;;;;;;20.42;90.86;100601.34;4985383;28;20623;-77
2023/09/10 07:42:47;;;;;;;12.73;11.83;;;;;;;20.50;89.78;100614.16;4992906;28;20239;-77
2023/09/10 07:45:14;;;;;;;12.43;11.63;;;;;;;20.61;89.46;100632.13;4993383;28;20230;-77
2023/09/10 07:47:41;;;;;;;13.03;12.10;;;;;;;20.65;88.90;100643.44;4991467;28;20227;-76
2023/09/10 07:50:08;;;;;;;12.70;11.67;;;;;;;20.75;89.28;100637.50;4971694;28;20204;-76
2023/09/10 07:52:35;;;;;;;12.43;11.53;;;;;;;20.84;89.08;100646.72;4991247;28;20258;-75
2023/09/10 07:55:01;;;;;;;11.93;11.07;;;;;;;20.99;88.89;100658.22;4991962;28;20208;-75
2023/09/10 07:57:29;;;;;;;15.77;14.60;;;;;;;21.01;88.90;100643.09;4993098;28;20203;-76
2023/09/10 07:59:55;;;;;;;16.27;15.03;;;;;;;21.13;88.41;100655.63;4992435;28;20274;-75
2023/09/10 08:02:26;;;;;;;15.47;14.13;;;;;;;21.30;88.65;100656.41;4992470;28;20211;-75
2023/09/10 08:04:53;;;;;;;15.83;14.63;;;;;;;21.39;88.66;100651.41;4991695;28;20211;-76
2023/09/10 08:07:19;;;;;;;17.10;15.90;;;;;;;21.50;87.74;100669.34;4992642;28;20242;-75
2023/09/10 08:09:46;;;;;;;25.90;23.57;;;;;;;21.40;86.74;100694.72;4992489;28;20203;-75
2023/09/10 08:12:12;;;;;;;23.53;21.73;;;;;;;21.49;85.78;100714.63;4992401;28;20211;-75
2023/09/10 08:14:41;;;;;;;21.90;19.87;;;;;;;21.60;85.38;100731.63;4988679;28;20675;-75
2023/09/10 08:17:07;;;;;;;20.33;18.93;;;;;;;21.60;85.69;100734.28;4992336;28;20211;-75
2023/09/10 08:19:34;;;;;;;22.30;20.60;;;;;;;21.73;84.72;100742.34;4975994;28;20567;-75
2023/09/10 08:22:00;;;;;;;22.73;21.07;;;;;;;21.71;84.66;100746.91;4984809;28;20211;-76
2023/09/10 08:24:27;;;;;;;22.23;20.63;;;;;;;21.72;84.46;100748.59;4992081;28;20227;-75
2023/09/10 08:26:53;;;;;;;23.17;21.30;;;;;;;21.80;83.65;100774.72;4991785;28;20208;-75
2023/09/10 08:29:19;;;;;;;23.00;21.03;;;;;;;22.03;82.93;100786.59;4992537;28;20230;-75
2023/09/10 08:31:47;;;;;;;22.83;20.40;;;;;;;22.13;83.00;100797.53;4992107;28;20211;-76
2023/09/10 08:34:14;;;;;;;23.43;21.70;;;;;;;22.00;81.53;100816.03;4990980;28;20231;-75
2023/09/10 08:36:40;;;;;;;21.33;19.50;;;;;;;22.13;81.86;100819.66;4991669;28;20212;-75
2023/09/10 08:39:07;;;;;;;20.87;19.07;;;;;;;22.32;81.45;100818.53;4978495;28;20573;-75
2023/09/10 08:41:41;;;;;;;22.87;21.27;;;;;;;22.31;80.78;100823.00;4992550;28;20211;-75
2023/09/10 08:44:10;;;;;;;22.37;20.50;;;;;;;22.43;81.31;100829.38;4991491;28;20593;-76
2023/09/10 08:46:38;;;;;;;20.67;19.27;;;;;;;22.33;80.33;100837.06;4992208;28;20207;-76
2023/09/10 08:49:07;;;;;;;20.43;19.03;;;;;;;22.45;81.11;100835.47;4979283;28;20228;-75
2023/09/10 08:51:35;;;;;;;21.37;19.53;;;;;;;22.38;80.41;100844.78;4980900;28;20208;-76
2023/09/10 08:54:02;;;;;;;21.00;19.30;;;;;;;22.41;80.78;100842.75;4991733;28;20281;-75
2023/09/10 08:56:30;;;;;;;23.37;21.67;;;;;;;22.49;79.66;100849.44;4992378;28;20211;-75
2023/09/10 08:58:58;;;;;;;29.77;26.57;;;;;;;22.71;79.83;100857.75;4991924;28;20553;-76
2023/09/10 09:01:25;;;;;;;21.60;19.73;;;;;;;22.70;79.94;100864.06;4992063;28;20670;-75
2023/09/10 09:03:52;;;;;;;21.63;20.07;;;;;;;22.62;79.45;100868.16;4989707;28;20219;-76
2023/09/10 09:06:20;;;;;;;21.40;19.93;;;;;;;22.74;79.70;100856.72;4982841;28;20200;-75
2023/09/10 09:08:50;;;;;;;20.93;19.40;;;;;;;22.83;80.16;100858.78;4984226;28;20732;-76
2023/09/10 09:11:19;;;;;;;20.80;19.13;;;;;;;22.94;78.71;100871.44;4982593;28;20208;-76
2023/09/10 09:13:47;;;;;;;20.50;19.00;;;;;;;23.14;78.85;100880.84;4984068;28;20601;-76
2023/09/10 09:16:15;;;;;;;22.20;20.17;;;;;;;23.05;79.41;100874.28;4987614;28;20207;-75
2023/09/10 09:18:43;;;;;;;21.70;20.20;;;;;;;23.27;79.95;100862.22;4980193;28;20728;-75
2023/09/10 09:21:15;;;;;;;22.83;20.87;;;;;;;23.32;78.90;100879.63;4976944;28;20611;-75
2023/09/10 09:23:46;;;;;;;22.53;20.93;;;;;;;23.38;78.80;100879.22;4991343;28;20709;-76
2023/09/10 09:26:14;;;;;;;20.87;19.37;;;;;;;23.49;78.62;100875.00;4991688;28;20658;-76
2023/09/10 09:28:40;;;;;;;19.40;18.10;;;;;;;23.48;78.90;100881.28;4991740;28;20235;-76
2023/09/10 09:31:08;;;;;;;20.13;18.63;;;;;;;23.48;78.92;100863.47;4991732;28;20203;-76
2023/09/10 09:33:36;;;;;;;19.27;17.87;;;;;;;23.58;77.84;100874.38;4990917;28;20251;-76
2023/09/10 09:36:07;;;;;;;21.47;19.77;;;;;;;23.50;78.42;100896.22;4984071;28;20205;-76
2023/09/10 09:38:34;;;;;;;19.10;17.80;;;;;;;23.56;78.98;100878.97;4995282;28;20646;-76
2023/09/10 09:41:04;;;;;;;20.87;19.10;;;;;;;23.69;78.32;100885.19;4995062;28;20207;-76
2023/09/10 09:43:33;;;;;;;20.43;18.80;;;;;;;23.77;77.17;100900.69;4995146;28;20289;-76
2023/09/10 09:46:00;;;;;;;19.40;18.00;;;;;;;23.81;76.92;100912.03;4995434;28;20739;-76
2023/09/10 09:48:27;;;;;;;18.67;17.37;;;;;;;23.99;75.98;100929.44;4988036;28;20228;-76
2023/09/10 09:50:53;;;;;;;17.90;16.53;;;;;;;24.08;76.26;100910.16;4978022;28;20236;-76
2023/09/10 09:53:20;;;;;;;18.87;17.13;;;;;;;24.16;76.30;100921.16;4995025;28;20226;-76
2023/09/10 09:55:47;;;;;;;18.33;17.03;;;;;;;24.24;75.86;100930.44;4994693;28;20737;-76
2023/09/10 09:58:19;;;;;;;19.37;17.73;;;;;;;24.21;75.63;100926.16;4994906;28;20201;-76
2023/09/10 10:00:45;;;;;;;19.63;18.23;;;;;;;24.21;76.69;100920.84;4995069;28;20574;-76
2023/09/10 10:03:12;;;;;;;19.10;17.07;;;;;;;24.44;76.90;100908.59;4994141;28;20359;-76
2023/09/10 10:05:39;;;;;;;17.97;16.77;;;;;;;24.52;76.30;100918.75;4994922;28;20219;-76
2023/09/10 10:08:05;;;;;;;18.90;17.60;;;;;;;24.57;75.12;100938.81;4987140;28;20227;-76
2023/09/10 10:10:34;;;;;;;21.07;19.30;;;;;;;24.57;74.92;100921.94;4994481;28;20226;-76
2023/09/10 10:13:02;;;;;;;21.80;20.20;;;;;;;24.69;74.09;100945.09;4994681;28;20225;-76
2023/09/10 10:15:31;;;;;;;18.87;17.67;;;;;;;24.81;74.08;100948.72;4994962;28;20236;-76
2023/09/10 10:17:59;;;;;;;21.60;20.20;;;;;;;24.70;73.70;100956.66;4991935;28;20215;-76
2023/09/10 10:20:25;;;;;;;20.27;18.87;;;;;;;24.84;73.74;100959.19;4975267;28;20213;-76
2023/09/10 10:22:52;;;;;;;18.77;17.67;;;;;;;24.96;75.43;100930.78;4992948;28;20254;-76
2023/09/10 10:25:20;;;;;;;19.87;18.37;;;;;;;24.93;72.20;100973.72;4994294;28;20661;-76
2023/09/10 10:27:49;;;;;;;19.67;18.37;;;;;;;25.05;72.24;100996.03;4994136;28;20208;-76
2023/09/10 10:30:16;;;;;;;17.77;16.73;;;;;;;25.02;71.31;101005.13;4994353;28;20203;-76
2023/09/10 10:32:45;;;;;;;19.73;18.00;;;;;;;25.07;69.73;101037.69;4993703;28;20237;-76
2023/09/10 10:35:12;;;;;;;18.43;17.07;;;;;;;25.11;69.73;101057.03;4993790;28;20207;-77
2023/09/10 10:37:47;;;;;;;19.07;17.17;;;;;;;25.24;68.91;101057.06;4994795;28;20213;-76
2023/09/10 10:40:18;;;;;;;16.07;15.00;;;;;;;25.46;69.21;101067.09;4994116;28;20212;-76
2023/09/10 10:42:50;;;;;;;16.67;15.57;;;;;;;25.46;68.26;101083.97;4993855;28;20317;-76
2023/09/10 10:45:18;;;;;;;16.50;15.40;;;;;;;25.54;68.18;101092.28;4994394;28;20200;-76
2023/09/10 10:47:47;;;;;;;17.37;16.17;;;;;;;25.61;67.38;101107.88;4992768;28;20207;-76
2023/09/10 10:50:20;;;;;;;15.37;14.23;;;;;;;25.66;69.42;101062.97;4973868;28;20674;-77
2023/09/10 10:52:55;;;;;;;15.87;14.70;;;;;;;25.54;67.76;101065.56;4991647;28;20778;-76
2023/09/10 10:55:22;;;;;;;17.13;15.87;;;;;;;25.66;68.75;101066.50;4993933;28;20668;-77
2023/09/10 10:57:49;;;;;;;15.90;14.63;;;;;;;25.68;66.82;101090.44;4993825;28;20213;-77
2023/09/10 11:00:17;;;;;;;17.03;15.87;;;;;;;25.69;67.63;101081.47;4993962;28;20211;-77
2023/09/10 11:02:43;;;;;;;18.13;16.73;;;;;;;25.83;68.00;101067.09;4993840;28;20230;-76
2023/09/10 11:05:11;;;;;;;18.03;16.67;;;;;;;25.92;67.16;101069.97;4995393;28;20708;-76
2023/09/10 11:07:37;;;;;;;16.03;15.03;;;;;;;26.05;66.67;101094.00;4994036;28;20269;-77
2023/09/10 11:10:34;;;;;;;18.10;16.57;;;;;;;26.26;66.10;101109.44;4992940;28;20225;-77
2023/09/10 11:13:07;;;;;;;15.07;14.00;;;;;;;26.47;66.69;101094.44;4992860;28;20237;-76
2023/09/10 11:15:33;;;;;;;16.87;15.57;;;;;;;26.24;65.46;101128.28;4993575;28;20207;-77
2023/09/10 11:18:33;;;;;;;19.10;17.80;;;;;;;26.41;64.34;101143.09;4990583;28;20208;-77